sensor_id;sensor_type;location;lat;lon;timestamp;P1;durP1;ratioP1;P2;durP2;ratioP2
15130;SDS011;7666;50.920;4.628;2023-04-06T00:02:14;17.77;;;12.10;;
15130;SDS011;7666;50.920;4.628;2023-04-06T00:05:00;18.23;;;12.50;;
15130;SDS011;7666;50.920;4.628;2023-04-06T00:07:46;15.77;;;12.37;;
15130;SDS011;7666;50.920;4.628;2023-04-06T00:10:32;16.30;;;12.23;;
15130;SDS011;7666;50.920;4.628;2023-04-06T00:13:18;15.83;;;12.27;;
15130;SDS011;7666;50.920;4.628;2023-04-06T00:16:04;16.30;;;12.10;;
15130;SDS011;7666;50.920;4.628;2023-04-06T00:18:51;18.77;;;12.43;;
15130;SDS011;7666;50.920;4.628;2023-04-06T00:21:37;16.43;;;12.03;;
15130;SDS011;7666;50.920;4.628;2023-04-06T00:24:23;16.10;;;11.40;;
15130;SDS011;7666;50.920;4.628;2023-04-06T00:27:09;16.77;;;12.20;;
15130;SDS011;7666;50.920;4.628;2023-04-06T00:29:55;17.60;;;12.37;;
15130;SDS011;7666;50.920;4.628;2023-04-06T00:32:42;19.17;;;11.53;;
15130;SDS011;7666;50.920;4.628;2023-04-06T00:35:28;18.03;;;12.50;;
15130;SDS011;7666;50.920;4.628;2023-04-06T00:38:14;15.13;;;11.90;;
15130;SDS011;7666;50.920;4.628;2023-04-06T00:41:02;16.80;;;11.50;;
15130;SDS011;7666;50.920;4.628;2023-04-06T00:43:49;16.47;;;11.67;;
15130;SDS011;7666;50.920;4.628;2023-04-06T00:46:35;18.63;;;12.17;;
15130;SDS011;7666;50.920;4.628;2023-04-06T00:49:21;14.50;;;11.83;;
15130;SDS011;7666;50.920;4.628;2023-04-06T00:52:08;17.00;;;11.80;;
15130;SDS011;7666;50.920;4.628;2023-04-06T00:54:54;14.87;;;11.17;;
15130;SDS011;7666;50.920;4.628;2023-04-06T00:57:40;15.47;;;11.47;;
15130;SDS011;7666;50.920;4.628;2023-04-06T01:00:26;18.20;;;12.10;;
15130;SDS011;7666;50.920;4.628;2023-04-06T01:03:12;15.93;;;12.03;;
15130;SDS011;7666;50.920;4.628;2023-04-06T01:05:59;17.27;;;11.67;;
15130;SDS011;7666;50.920;4.628;2023-04-06T01:08:45;17.57;;;11.80;;
15130;SDS011;7666;50.920;4.628;2023-04-06T01:11:31;16.73;;;11.80;;
15130;SDS011;7666;50.920;4.628;2023-04-06T01:14:17;17.07;;;11.60;;
15130;SDS011;7666;50.920;4.628;2023-04-06T01:17:03;17.47;;;12.47;;
15130;SDS011;7666;50.920;4.628;2023-04-06T01:19:49;16.13;;;12.20;;
15130;SDS011;7666;50.920;4.628;2023-04-06T01:22:38;16.00;;;12.30;;
15130;SDS011;7666;50.920;4.628;2023-04-06T01:25:24;16.07;;;12.70;;
15130;SDS011;7666;50.920;4.628;2023-04-06T01:28:11;17.23;;;12.37;;
15130;SDS011;7666;50.920;4.628;2023-04-06T01:30:56;15.13;;;10.87;;
15130;SDS011;7666;50.920;4.628;2023-04-06T01:33:43;17.83;;;12.97;;
15130;SDS011;7666;50.920;4.628;2023-04-06T01:36:29;20.60;;;12.47;;
15130;SDS011;7666;50.920;4.628;2023-04-06T01:39:15;16.23;;;11.33;;
15130;SDS011;7666;50.920;4.628;2023-04-06T01:42:01;15.00;;;11.00;;
15130;SDS011;7666;50.920;4.628;2023-04-06T01:44:46;20.43;;;11.10;;
15130;SDS011;7666;50.920;4.628;2023-04-06T01:47:32;15.27;;;12.20;;
15130;SDS011;7666;50.920;4.628;2023-04-06T01:50:18;16.90;;;11.13;;
15130;SDS011;7666;50.920;4.628;2023-04-06T01:53:05;17.53;;;10.97;;
15130;SDS011;7666;50.920;4.628;2023-04-06T01:55:51;13.70;;;10.87;;
15130;SDS011;7666;50.920;4.628;2023-04-06T01:58:37;15.23;;;11.07;;
15130;SDS011;7666;50.920;4.628;2023-04-06T02:01:23;15.83;;;11.47;;
15130;SDS011;7666;50.920;4.628;2023-04-06T02:04:09;15.37;;;11.77;;
15130;SDS011;7666;50.920;4.628;2023-04-06T02:06:55;14.23;;;10.77;;
15130;SDS011;7666;50.920;4.628;2023-04-06T02:09:41;13.60;;;11.30;;
15130;SDS011;7666;50.920;4.628;2023-04-06T02:12:27;15.77;;;11.90;;
15130;SDS011;7666;50.920;4.628;2023-04-06T02:15:13;14.27;;;10.47;;
15130;SDS011;7666;50.920;4.628;2023-04-06T02:17:59;13.13;;;10.87;;
15130;SDS011;7666;50.920;4.628;2023-04-06T02:20:45;15.23;;;11.30;;
15130;SDS011;7666;50.920;4.628;2023-04-06T02:23:32;13.77;;;10.50;;
15130;SDS011;7666;50.920;4.628;2023-04-06T02:26:18;15.67;;;10.90;;
15130;SDS011;7666;50.920;4.628;2023-04-06T02:29:05;15.30;;;11.60;;
15130;SDS011;7666;50.920;4.628;2023-04-06T02:31:51;14.87;;;11.10;;
15130;SDS011;7666;50.920;4.628;2023-04-06T02:34:37;15.20;;;10.97;;
15130;SDS011;7666;50.920;4.628;2023-04-06T02:37:23;14.40;;;10.90;;
15130;SDS011;7666;50.920;4.628;2023-04-06T02:40:10;13.57;;;10.93;;
15130;SDS011;7666;50.920;4.628;2023-04-06T02:42:56;15.17;;;11.27;;
15130;SDS011;7666;50.920;4.628;2023-04-06T02:45:42;14.40;;;10.67;;
15130;SDS011;7666;50.920;4.628;2023-04-06T02:48:28;15.97;;;11.60;;
15130;SDS011;7666;50.920;4.628;2023-04-06T02:51:14;18.73;;;11.43;;
15130;SDS011;7666;50.920;4.628;2023-04-06T02:54:00;13.57;;;10.30;;
15130;SDS011;7666;50.920;4.628;2023-04-06T02:56:46;16.07;;;10.23;;
15130;SDS011;7666;50.920;4.628;2023-04-06T02:59:32;13.47;;;10.57;;
15130;SDS011;7666;50.920;4.628;2023-04-06T03:02:18;15.13;;;11.33;;
15130;SDS011;7666;50.920;4.628;2023-04-06T03:05:04;15.50;;;11.03;;
15130;SDS011;7666;50.920;4.628;2023-04-06T03:07:50;16.90;;;10.73;;
15130;SDS011;7666;50.920;4.628;2023-04-06T03:10:36;16.53;;;11.33;;
15130;SDS011;7666;50.920;4.628;2023-04-06T03:13:22;14.50;;;10.67;;
15130;SDS011;7666;50.920;4.628;2023-04-06T03:16:08;15.20;;;10.93;;
15130;SDS011;7666;50.920;4.628;2023-04-06T03:18:54;13.70;;;10.97;;
15130;SDS011;7666;50.920;4.628;2023-04-06T03:21:40;14.97;;;11.33;;
15130;SDS011;7666;50.920;4.628;2023-04-06T03:24:27;15.10;;;10.97;;
15130;SDS011;7666;50.920;4.628;2023-04-06T03:27:13;13.60;;;10.53;;
15130;SDS011;7666;50.920;4.628;2023-04-06T03:29:59;15.23;;;11.57;;
15130;SDS011;7666;50.920;4.628;2023-04-06T03:32:45;16.40;;;11.20;;
15130;SDS011;7666;50.920;4.628;2023-04-06T03:35:31;18.13;;;11.43;;
15130;SDS011;7666;50.920;4.628;2023-04-06T03:38:17;16.73;;;11.27;;
15130;SDS011;7666;50.920;4.628;2023-04-06T03:41:03;16.77;;;11.03;;
15130;SDS011;7666;50.920;4.628;2023-04-06T03:43:49;14.53;;;11.43;;
15130;SDS011;7666;50.920;4.628;2023-04-06T03:46:35;15.67;;;11.93;;
15130;SDS011;7666;50.920;4.628;2023-04-06T03:49:21;16.40;;;11.63;;
15130;SDS011;7666;50.920;4.628;2023-04-06T03:52:08;15.00;;;11.10;;
15130;SDS011;7666;50.920;4.628;2023-04-06T03:54:54;16.80;;;12.53;;
15130;SDS011;7666;50.920;4.628;2023-04-06T03:57:40;17.23;;;11.53;;
15130;SDS011;7666;50.920;4.628;2023-04-06T04:00:26;14.53;;;11.50;;
15130;SDS011;7666;50.920;4.628;2023-04-06T04:03:12;14.53;;;11.13;;
15130;SDS011;7666;50.920;4.628;2023-04-06T04:05:58;15.80;;;10.70;;
15130;SDS011;7666;50.920;4.628;2023-04-06T04:08:45;15.63;;;11.70;;
15130;SDS011;7666;50.920;4.628;2023-04-06T04:11:31;18.17;;;11.43;;
15130;SDS011;7666;50.920;4.628;2023-04-06T04:14:17;13.93;;;11.23;;
15130;SDS011;7666;50.920;4.628;2023-04-06T04:17:03;15.80;;;11.53;;
15130;SDS011;7666;50.920;4.628;2023-04-06T04:19:49;15.30;;;10.63;;
15130;SDS011;7666;50.920;4.628;2023-04-06T04:22:35;14.97;;;10.90;;
15130;SDS011;7666;50.920;4.628;2023-04-06T04:25:21;16.03;;;11.60;;
15130;SDS011;7666;50.920;4.628;2023-04-06T04:28:08;14.00;;;11.07;;
15130;SDS011;7666;50.920;4.628;2023-04-06T04:30:54;13.73;;;10.97;;
15130;SDS011;7666;50.920;4.628;2023-04-06T04:33:40;17.13;;;11.43;;
15130;SDS011;7666;50.920;4.628;2023-04-06T04:36:26;13.60;;;11.17;;
15130;SDS011;7666;50.920;4.628;2023-04-06T04:39:13;15.53;;;10.73;;
15130;SDS011;7666;50.920;4.628;2023-04-06T04:42:00;14.73;;;10.50;;
15130;SDS011;7666;50.920;4.628;2023-04-06T04:44:46;14.97;;;11.53;;
15130;SDS011;7666;50.920;4.628;2023-04-06T04:47:32;13.87;;;11.17;;
15130;SDS011;7666;50.920;4.628;2023-04-06T04:50:18;14.97;;;11.40;;
15130;SDS011;7666;50.920;4.628;2023-04-06T04:53:04;14.07;;;11.83;;
15130;SDS011;7666;50.920;4.628;2023-04-06T04:55:51;16.83;;;11.33;;
15130;SDS011;7666;50.920;4.628;2023-04-06T04:58:37;17.70;;;11.43;;
15130;SDS011;7666;50.920;4.628;2023-04-06T05:01:23;15.40;;;11.77;;
15130;SDS011;7666;50.920;4.628;2023-04-06T05:04:09;17.70;;;12.67;;
15130;SDS011;7666;50.920;4.628;2023-04-06T05:07:28;20.93;;;13.57;;
15130;SDS011;7666;50.920;4.628;2023-04-06T05:10:08;15.97;;;10.93;;
15130;SDS011;7666;50.920;4.628;2023-04-06T05:12:54;13.30;;;10.80;;
15130;SDS011;7666;50.920;4.628;2023-04-06T05:15:40;15.00;;;11.77;;
15130;SDS011;7666;50.920;4.628;2023-04-06T05:18:26;15.60;;;11.27;;
15130;SDS011;7666;50.920;4.628;2023-04-06T05:21:13;14.70;;;11.27;;
15130;SDS011;7666;50.920;4.628;2023-04-06T05:23:59;15.60;;;11.80;;
15130;SDS011;7666;50.920;4.628;2023-04-06T05:26:47;14.50;;;11.40;;
15130;SDS011;7666;50.920;4.628;2023-04-06T05:29:34;18.10;;;12.23;;
15130;SDS011;7666;50.920;4.628;2023-04-06T05:32:21;14.73;;;11.27;;
15130;SDS011;7666;50.920;4.628;2023-04-06T05:35:08;13.73;;;11.63;;
15130;SDS011;7666;50.920;4.628;2023-04-06T05:37:54;21.40;;;14.83;;
15130;SDS011;7666;50.920;4.628;2023-04-06T05:40:40;15.33;;;12.00;;
15130;SDS011;7666;50.920;4.628;2023-04-06T05:43:27;14.90;;;10.03;;
15130;SDS011;7666;50.920;4.628;2023-04-06T05:46:13;13.93;;;11.30;;
15130;SDS011;7666;50.920;4.628;2023-04-06T05:48:59;15.27;;;11.03;;
15130;SDS011;7666;50.920;4.628;2023-04-06T05:51:45;17.47;;;11.70;;
15130;SDS011;7666;50.920;4.628;2023-04-06T05:54:31;17.97;;;11.43;;
15130;SDS011;7666;50.920;4.628;2023-04-06T05:57:17;16.40;;;12.17;;
15130;SDS011;7666;50.920;4.628;2023-04-06T06:00:04;16.93;;;12.53;;
15130;SDS011;7666;50.920;4.628;2023-04-06T06:02:54;14.90;;;11.33;;
15130;SDS011;7666;50.920;4.628;2023-04-06T06:05:40;14.47;;;11.77;;
15130;SDS011;7666;50.920;4.628;2023-04-06T06:08:26;17.07;;;12.07;;
15130;SDS011;7666;50.920;4.628;2023-04-06T06:11:12;14.90;;;11.60;;
15130;SDS011;7666;50.920;4.628;2023-04-06T06:13:58;17.90;;;11.90;;
15130;SDS011;7666;50.920;4.628;2023-04-06T06:16:44;15.30;;;11.63;;
15130;SDS011;7666;50.920;4.628;2023-04-06T06:19:30;20.13;;;12.30;;
15130;SDS011;7666;50.920;4.628;2023-04-06T06:22:16;16.60;;;11.37;;
15130;SDS011;7666;50.920;4.628;2023-04-06T06:25:02;18.00;;;11.23;;
15130;SDS011;7666;50.920;4.628;2023-04-06T06:27:49;15.03;;;12.03;;
15130;SDS011;7666;50.920;4.628;2023-04-06T06:30:35;16.57;;;12.30;;
15130;SDS011;7666;50.920;4.628;2023-04-06T06:33:21;14.77;;;11.57;;
15130;SDS011;7666;50.920;4.628;2023-04-06T06:36:07;17.50;;;12.10;;
15130;SDS011;7666;50.920;4.628;2023-04-06T06:38:53;16.80;;;12.70;;
15130;SDS011;7666;50.920;4.628;2023-04-06T06:41:39;17.13;;;12.33;;
15130;SDS011;7666;50.920;4.628;2023-04-06T06:44:25;17.57;;;12.80;;
15130;SDS011;7666;50.920;4.628;2023-04-06T06:47:12;16.57;;;12.17;;
15130;SDS011;7666;50.920;4.628;2023-04-06T06:49:58;15.37;;;12.20;;
15130;SDS011;7666;50.920;4.628;2023-04-06T06:52:44;17.97;;;13.10;;
15130;SDS011;7666;50.920;4.628;2023-04-06T06:55:30;14.93;;;12.30;;
15130;SDS011;7666;50.920;4.628;2023-04-06T06:58:17;15.03;;;12.70;;
15130;SDS011;7666;50.920;4.628;2023-04-06T07:01:05;14.90;;;11.47;;
15130;SDS011;7666;50.920;4.628;2023-04-06T07:03:51;19.17;;;12.50;;
15130;SDS011;7666;50.920;4.628;2023-04-06T07:06:37;18.50;;;13.00;;
15130;SDS011;7666;50.920;4.628;2023-04-06T07:09:23;16.10;;;12.73;;
15130;SDS011;7666;50.920;4.628;2023-04-06T07:12:10;15.53;;;12.90;;
15130;SDS011;7666;50.920;4.628;2023-04-06T07:14:56;17.63;;;13.33;;
15130;SDS011;7666;50.920;4.628;2023-04-06T07:17:42;17.10;;;12.83;;
15130;SDS011;7666;50.920;4.628;2023-04-06T07:20:30;19.27;;;13.80;;
15130;SDS011;7666;50.920;4.628;2023-04-06T07:23:16;16.77;;;13.30;;
15130;SDS011;7666;50.920;4.628;2023-04-06T07:26:02;23.47;;;13.37;;
15130;SDS011;7666;50.920;4.628;2023-04-06T07:28:48;17.43;;;14.23;;
15130;SDS011;7666;50.920;4.628;2023-04-06T07:31:34;17.73;;;13.97;;
15130;SDS011;7666;50.920;4.628;2023-04-06T07:34:21;17.20;;;13.27;;
15130;SDS011;7666;50.920;4.628;2023-04-06T07:37:07;17.47;;;14.17;;
15130;SDS011;7666;50.920;4.628;2023-04-06T07:39:53;19.90;;;14.83;;
15130;SDS011;7666;50.920;4.628;2023-04-06T07:42:39;19.03;;;13.33;;
15130;SDS011;7666;50.920;4.628;2023-04-06T07:45:25;17.93;;;13.97;;
15130;SDS011;7666;50.920;4.628;2023-04-06T07:48:11;17.90;;;13.87;;
15130;SDS011;7666;50.920;4.628;2023-04-06T07:51:03;16.40;;;12.97;;
15130;SDS011;7666;50.920;4.628;2023-04-06T07:53:50;16.07;;;12.40;;
15130;SDS011;7666;50.920;4.628;2023-04-06T07:56:36;19.50;;;13.90;;
15130;SDS011;7666;50.920;4.628;2023-04-06T07:59:23;16.47;;;12.97;;
15130;SDS011;7666;50.920;4.628;2023-04-06T08:02:09;14.30;;;11.43;;
15130;SDS011;7666;50.920;4.628;2023-04-06T08:04:55;15.67;;;12.60;;
15130;SDS011;7666;50.920;4.628;2023-04-06T08:07:41;15.47;;;11.67;;
15130;SDS011;7666;50.920;4.628;2023-04-06T08:10:27;15.83;;;11.20;;
15130;SDS011;7666;50.920;4.628;2023-04-06T08:13:14;14.83;;;11.50;;
15130;SDS011;7666;50.920;4.628;2023-04-06T08:16:01;16.00;;;11.37;;
15130;SDS011;7666;50.920;4.628;2023-04-06T08:18:47;14.90;;;11.47;;
15130;SDS011;7666;50.920;4.628;2023-04-06T08:21:33;14.20;;;11.43;;
15130;SDS011;7666;50.920;4.628;2023-04-06T08:24:19;14.70;;;10.97;;
15130;SDS011;7666;50.920;4.628;2023-04-06T08:27:05;15.80;;;11.67;;
15130;SDS011;7666;50.920;4.628;2023-04-06T08:29:51;16.07;;;10.87;;
15130;SDS011;7666;50.920;4.628;2023-04-06T08:32:37;14.73;;;10.93;;
15130;SDS011;7666;50.920;4.628;2023-04-06T08:35:23;13.20;;;10.47;;
15130;SDS011;7666;50.920;4.628;2023-04-06T08:38:09;12.80;;;11.30;;
15130;SDS011;7666;50.920;4.628;2023-04-06T08:40:55;14.60;;;11.57;;
15130;SDS011;7666;50.920;4.628;2023-04-06T08:46:35;14.90;;;11.23;;
15130;SDS011;7666;50.920;4.628;2023-04-06T08:49:21;14.43;;;10.40;;
15130;SDS011;7666;50.920;4.628;2023-04-06T08:52:07;15.00;;;10.70;;
15130;SDS011;7666;50.920;4.628;2023-04-06T08:54:55;14.40;;;10.57;;
15130;SDS011;7666;50.920;4.628;2023-04-06T08:57:42;12.70;;;11.07;;
15130;SDS011;7666;50.920;4.628;2023-04-06T09:00:28;12.87;;;10.47;;
15130;SDS011;7666;50.920;4.628;2023-04-06T09:03:15;13.70;;;10.07;;
15130;SDS011;7666;50.920;4.628;2023-04-06T09:06:02;11.47;;;9.83;;
15130;SDS011;7666;50.920;4.628;2023-04-06T09:08:49;13.90;;;10.23;;
15130;SDS011;7666;50.920;4.628;2023-04-06T09:11:45;13.23;;;9.40;;
15130;SDS011;7666;50.920;4.628;2023-04-06T09:14:38;14.53;;;9.80;;
15130;SDS011;7666;50.920;4.628;2023-04-06T09:17:26;11.63;;;9.60;;
15130;SDS011;7666;50.920;4.628;2023-04-06T09:20:23;14.20;;;10.63;;
15130;SDS011;7666;50.920;4.628;2023-04-06T09:23:19;14.67;;;11.23;;
15130;SDS011;7666;50.920;4.628;2023-04-06T09:28:54;13.40;;;10.67;;
15130;SDS011;7666;50.920;4.628;2023-04-06T09:31:41;12.60;;;10.87;;
15130;SDS011;7666;50.920;4.628;2023-04-06T09:34:27;12.67;;;10.87;;
15130;SDS011;7666;50.920;4.628;2023-04-06T09:37:16;15.93;;;11.10;;
15130;SDS011;7666;50.920;4.628;2023-04-06T09:40:04;13.63;;;11.10;;
15130;SDS011;7666;50.920;4.628;2023-04-06T09:42:52;13.53;;;11.17;;
15130;SDS011;7666;50.920;4.628;2023-04-06T09:45:39;17.30;;;12.10;;
15130;SDS011;7666;50.920;4.628;2023-04-06T09:48:25;16.23;;;12.10;;
15130;SDS011;7666;50.920;4.628;2023-04-06T09:51:15;17.73;;;12.73;;
15130;SDS011;7666;50.920;4.628;2023-04-06T09:54:03;14.43;;;12.13;;
15130;SDS011;7666;50.920;4.628;2023-04-06T09:56:54;17.47;;;12.77;;
15130;SDS011;7666;50.920;4.628;2023-04-06T10:00:08;16.80;;;12.33;;
15130;SDS011;7666;50.920;4.628;2023-04-06T10:06:18;18.83;;;12.93;;
15130;SDS011;7666;50.920;4.628;2023-04-06T10:09:08;14.53;;;11.40;;
15130;SDS011;7666;50.920;4.628;2023-04-06T10:11:55;14.93;;;11.40;;
15130;SDS011;7666;50.920;4.628;2023-04-06T10:14:41;13.93;;;11.13;;
15130;SDS011;7666;50.920;4.628;2023-04-06T10:17:29;14.50;;;12.00;;
15130;SDS011;7666;50.920;4.628;2023-04-06T10:20:21;15.10;;;12.20;;
15130;SDS011;7666;50.920;4.628;2023-04-06T10:26:25;10.83;;;9.67;;
15130;SDS011;7666;50.920;4.628;2023-04-06T10:29:11;12.97;;;10.33;;
15130;SDS011;7666;50.920;4.628;2023-04-06T10:31:57;10.83;;;9.43;;
15130;SDS011;7666;50.920;4.628;2023-04-06T10:34:43;11.47;;;9.90;;
15130;SDS011;7666;50.920;4.628;2023-04-06T10:37:29;11.10;;;9.90;;
15130;SDS011;7666;50.920;4.628;2023-04-06T10:40:47;11.20;;;9.33;;
15130;SDS011;7666;50.920;4.628;2023-04-06T10:43:35;10.37;;;9.20;;
15130;SDS011;7666;50.920;4.628;2023-04-06T10:46:26;11.87;;;9.90;;
15130;SDS011;7666;50.920;4.628;2023-04-06T10:49:17;10.97;;;9.43;;
15130;SDS011;7666;50.920;4.628;2023-04-06T10:52:03;12.87;;;9.67;;
15130;SDS011;7666;50.920;4.628;2023-04-06T10:54:51;11.17;;;10.00;;
15130;SDS011;7666;50.920;4.628;2023-04-06T10:57:38;11.10;;;9.23;;
15130;SDS011;7666;50.920;4.628;2023-04-06T11:00:24;14.30;;;10.63;;
15130;SDS011;7666;50.920;4.628;2023-04-06T11:03:10;11.37;;;10.17;;
15130;SDS011;7666;50.920;4.628;2023-04-06T11:05:56;11.47;;;10.17;;
15130;SDS011;7666;50.920;4.628;2023-04-06T11:08:42;11.60;;;10.40;;
15130;SDS011;7666;50.920;4.628;2023-04-06T11:11:28;13.80;;;11.17;;
15130;SDS011;7666;50.920;4.628;2023-04-06T11:14:14;13.43;;;10.33;;
15130;SDS011;7666;50.920;4.628;2023-04-06T11:17:00;12.97;;;10.73;;
15130;SDS011;7666;50.920;4.628;2023-04-06T11:19:46;12.90;;;11.10;;
15130;SDS011;7666;50.920;4.628;2023-04-06T11:22:32;12.00;;;10.10;;
15130;SDS011;7666;50.920;4.628;2023-04-06T11:25:18;12.57;;;9.73;;
15130;SDS011;7666;50.920;4.628;2023-04-06T11:28:05;12.17;;;10.60;;
15130;SDS011;7666;50.920;4.628;2023-04-06T11:30:51;12.10;;;10.30;;
15130;SDS011;7666;50.920;4.628;2023-04-06T11:33:38;11.47;;;10.00;;
15130;SDS011;7666;50.920;4.628;2023-04-06T11:36:26;12.60;;;10.13;;
15130;SDS011;7666;50.920;4.628;2023-04-06T11:39:13;11.40;;;10.20;;
15130;SDS011;7666;50.920;4.628;2023-04-06T11:42:04;11.83;;;9.97;;
15130;SDS011;7666;50.920;4.628;2023-04-06T11:44:51;10.83;;;9.47;;
15130;SDS011;7666;50.920;4.628;2023-04-06T11:47:39;11.47;;;10.27;;
15130;SDS011;7666;50.920;4.628;2023-04-06T11:50:25;12.80;;;10.00;;
15130;SDS011;7666;50.920;4.628;2023-04-06T11:53:18;10.10;;;8.70;;
15130;SDS011;7666;50.920;4.628;2023-04-06T11:56:04;10.83;;;9.83;;
15130;SDS011;7666;50.920;4.628;2023-04-06T11:58:51;11.93;;;10.60;;
15130;SDS011;7666;50.920;4.628;2023-04-06T12:01:44;12.33;;;9.77;;
15130;SDS011;7666;50.920;4.628;2023-04-06T12:04:30;10.47;;;9.33;;
15130;SDS011;7666;50.920;4.628;2023-04-06T12:07:17;12.90;;;10.23;;
15130;SDS011;7666;50.920;4.628;2023-04-06T12:10:03;10.87;;;9.77;;
15130;SDS011;7666;50.920;4.628;2023-04-06T12:12:50;13.47;;;10.23;;
15130;SDS011;7666;50.920;4.628;2023-04-06T12:15:36;12.90;;;10.67;;
15130;SDS011;7666;50.920;4.628;2023-04-06T12:18:22;13.17;;;9.93;;
15130;SDS011;7666;50.920;4.628;2023-04-06T12:21:08;12.60;;;9.67;;
15130;SDS011;7666;50.920;4.628;2023-04-06T12:23:55;12.23;;;9.77;;
15130;SDS011;7666;50.920;4.628;2023-04-06T12:26:42;11.87;;;10.27;;
15130;SDS011;7666;50.920;4.628;2023-04-06T12:29:28;11.23;;;9.77;;
15130;SDS011;7666;50.920;4.628;2023-04-06T12:32:14;12.33;;;10.40;;
15130;SDS011;7666;50.920;4.628;2023-04-06T12:35:00;11.03;;;9.90;;
15130;SDS011;7666;50.920;4.628;2023-04-06T12:37:47;12.93;;;9.80;;
15130;SDS011;7666;50.920;4.628;2023-04-06T12:40:36;10.67;;;9.57;;
15130;SDS011;7666;50.920;4.628;2023-04-06T12:43:23;11.00;;;9.90;;
15130;SDS011;7666;50.920;4.628;2023-04-06T12:46:09;11.63;;;9.93;;
15130;SDS011;7666;50.920;4.628;2023-04-06T12:48:56;11.93;;;9.63;;
15130;SDS011;7666;50.920;4.628;2023-04-06T12:51:43;10.17;;;8.97;;
15130;SDS011;7666;50.920;4.628;2023-04-06T12:54:29;11.20;;;10.03;;
15130;SDS011;7666;50.920;4.628;2023-04-06T12:57:15;11.10;;;9.47;;
15130;SDS011;7666;50.920;4.628;2023-04-06T13:00:01;10.57;;;9.47;;
15130;SDS011;7666;50.920;4.628;2023-04-06T13:02:47;11.70;;;10.43;;
15130;SDS011;7666;50.920;4.628;2023-04-06T13:05:33;12.47;;;9.97;;
15130;SDS011;7666;50.920;4.628;2023-04-06T13:08:19;11.20;;;10.00;;
15130;SDS011;7666;50.920;4.628;2023-04-06T13:11:05;11.60;;;9.90;;
15130;SDS011;7666;50.920;4.628;2023-04-06T13:13:54;10.53;;;9.50;;
15130;SDS011;7666;50.920;4.628;2023-04-06T13:16:40;11.40;;;9.93;;
15130;SDS011;7666;50.920;4.628;2023-04-06T13:19:26;14.00;;;11.10;;
15130;SDS011;7666;50.920;4.628;2023-04-06T13:22:12;13.67;;;10.77;;
15130;SDS011;7666;50.920;4.628;2023-04-06T13:24:58;13.60;;;10.70;;
15130;SDS011;7666;50.920;4.628;2023-04-06T13:27:45;12.27;;;10.97;;
15130;SDS011;7666;50.920;4.628;2023-04-06T13:30:32;10.77;;;9.77;;
15130;SDS011;7666;50.920;4.628;2023-04-06T13:33:18;11.40;;;10.10;;
15130;SDS011;7666;50.920;4.628;2023-04-06T13:36:05;12.10;;;10.80;;
15130;SDS011;7666;50.920;4.628;2023-04-06T13:38:52;12.20;;;10.90;;
15130;SDS011;7666;50.920;4.628;2023-04-06T13:41:40;13.13;;;11.73;;
15130;SDS011;7666;50.920;4.628;2023-04-06T13:44:27;15.23;;;11.23;;
15130;SDS011;7666;50.920;4.628;2023-04-06T13:47:13;15.43;;;11.73;;
15130;SDS011;7666;50.920;4.628;2023-04-06T13:50:01;13.37;;;11.47;;
15130;SDS011;7666;50.920;4.628;2023-04-06T13:52:47;12.60;;;10.87;;
15130;SDS011;7666;50.920;4.628;2023-04-06T13:55:34;13.73;;;11.67;;
15130;SDS011;7666;50.920;4.628;2023-04-06T13:58:21;13.77;;;11.23;;
15130;SDS011;7666;50.920;4.628;2023-04-06T14:01:07;13.37;;;12.00;;
15130;SDS011;7666;50.920;4.628;2023-04-06T14:03:54;16.50;;;12.10;;
15130;SDS011;7666;50.920;4.628;2023-04-06T14:06:40;13.50;;;12.10;;
15130;SDS011;7666;50.920;4.628;2023-04-06T14:09:27;15.30;;;12.40;;
15130;SDS011;7666;50.920;4.628;2023-04-06T14:12:13;13.87;;;11.80;;
15130;SDS011;7666;50.920;4.628;2023-04-06T14:14:59;16.83;;;12.03;;
15130;SDS011;7666;50.920;4.628;2023-04-06T14:17:45;14.13;;;12.63;;
15130;SDS011;7666;50.920;4.628;2023-04-06T14:20:32;14.87;;;12.83;;
15130;SDS011;7666;50.920;4.628;2023-04-06T14:23:18;15.47;;;13.10;;
15130;SDS011;7666;50.920;4.628;2023-04-06T14:26:04;14.23;;;12.73;;
15130;SDS011;7666;50.920;4.628;2023-04-06T14:28:54;15.73;;;12.43;;
15130;SDS011;7666;50.920;4.628;2023-04-06T14:31:41;13.87;;;12.47;;
15130;SDS011;7666;50.920;4.628;2023-04-06T14:34:27;14.60;;;12.27;;
15130;SDS011;7666;50.920;4.628;2023-04-06T14:37:13;14.67;;;12.87;;
15130;SDS011;7666;50.920;4.628;2023-04-06T14:39:59;15.17;;;12.03;;
15130;SDS011;7666;50.920;4.628;2023-04-06T14:42:45;14.23;;;12.30;;
15130;SDS011;7666;50.920;4.628;2023-04-06T14:45:32;15.40;;;12.23;;
15130;SDS011;7666;50.920;4.628;2023-04-06T14:48:20;12.17;;;10.97;;
15130;SDS011;7666;50.920;4.628;2023-04-06T14:51:06;12.53;;;10.93;;
15130;SDS011;7666;50.920;4.628;2023-04-06T14:53:52;12.93;;;11.53;;
15130;SDS011;7666;50.920;4.628;2023-04-06T14:56:39;13.23;;;11.30;;
15130;SDS011;7666;50.920;4.628;2023-04-06T14:59:25;13.17;;;11.77;;
15130;SDS011;7666;50.920;4.628;2023-04-06T15:02:11;12.67;;;11.37;;
15130;SDS011;7666;50.920;4.628;2023-04-06T15:04:57;13.37;;;12.07;;
15130;SDS011;7666;50.920;4.628;2023-04-06T15:07:43;13.10;;;11.70;;
15130;SDS011;7666;50.920;4.628;2023-04-06T15:10:32;13.60;;;12.00;;
15130;SDS011;7666;50.920;4.628;2023-04-06T15:13:18;13.57;;;12.17;;
15130;SDS011;7666;50.920;4.628;2023-04-06T15:16:04;14.03;;;11.93;;
15130;SDS011;7666;50.920;4.628;2023-04-06T15:18:51;14.20;;;12.70;;
15130;SDS011;7666;50.920;4.628;2023-04-06T15:21:37;16.57;;;13.30;;
15130;SDS011;7666;50.920;4.628;2023-04-06T15:24:23;14.77;;;13.27;;
15130;SDS011;7666;50.920;4.628;2023-04-06T15:27:09;15.63;;;14.03;;
15130;SDS011;7666;50.920;4.628;2023-04-06T15:29:55;17.50;;;13.83;;
15130;SDS011;7666;50.920;4.628;2023-04-06T15:32:51;16.60;;;14.50;;
15130;SDS011;7666;50.920;4.628;2023-04-06T15:35:41;16.90;;;13.87;;
15130;SDS011;7666;50.920;4.628;2023-04-06T15:38:27;16.17;;;14.40;;
15130;SDS011;7666;50.920;4.628;2023-04-06T15:41:14;16.30;;;14.27;;
15130;SDS011;7666;50.920;4.628;2023-04-06T15:44:00;16.90;;;14.03;;
15130;SDS011;7666;50.920;4.628;2023-04-06T15:46:46;14.50;;;12.53;;
15130;SDS011;7666;50.920;4.628;2023-04-06T15:49:32;14.53;;;13.07;;
15130;SDS011;7666;50.920;4.628;2023-04-06T15:52:19;15.87;;;14.17;;
15130;SDS011;7666;50.920;4.628;2023-04-06T15:55:06;15.70;;;13.60;;
15130;SDS011;7666;50.920;4.628;2023-04-06T15:57:53;16.50;;;14.10;;
15130;SDS011;7666;50.920;4.628;2023-04-06T16:00:39;16.57;;;14.00;;
15130;SDS011;7666;50.920;4.628;2023-04-06T16:03:25;17.07;;;14.60;;
15130;SDS011;7666;50.920;4.628;2023-04-06T16:06:11;15.80;;;14.00;;
15130;SDS011;7666;50.920;4.628;2023-04-06T16:08:57;16.87;;;14.00;;
15130;SDS011;7666;50.920;4.628;2023-04-06T16:11:43;20.43;;;15.23;;
15130;SDS011;7666;50.920;4.628;2023-04-06T16:14:29;18.27;;;15.10;;
15130;SDS011;7666;50.920;4.628;2023-04-06T16:17:15;18.27;;;14.33;;
15130;SDS011;7666;50.920;4.628;2023-04-06T16:20:01;17.43;;;13.83;;
15130;SDS011;7666;50.920;4.628;2023-04-06T16:22:48;16.27;;;14.57;;
15130;SDS011;7666;50.920;4.628;2023-04-06T16:25:34;15.47;;;13.60;;
15130;SDS011;7666;50.920;4.628;2023-04-06T16:28:20;15.57;;;13.53;;
15130;SDS011;7666;50.920;4.628;2023-04-06T16:31:15;15.60;;;13.30;;
15130;SDS011;7666;50.920;4.628;2023-04-06T16:34:06;17.77;;;14.37;;
15130;SDS011;7666;50.920;4.628;2023-04-06T16:36:52;17.60;;;13.93;;
15130;SDS011;7666;50.920;4.628;2023-04-06T16:39:40;19.87;;;14.33;;
15130;SDS011;7666;50.920;4.628;2023-04-06T16:42:26;16.97;;;13.23;;
15130;SDS011;7666;50.920;4.628;2023-04-06T16:45:13;18.53;;;14.00;;